createdAt,value
2017-05-26T00:00:05.758Z,9.42
2017-05-26T00:02:34.063Z,8.78
2017-05-26T00:05:02.395Z,9.06
2017-05-26T00:07:30.715Z,8.30
2017-05-26T00:09:59.015Z,9.14
2017-05-26T00:12:27.323Z,9.02
2017-05-26T00:14:55.798Z,10.50
2017-05-26T00:17:24.111Z,9.58
2017-05-26T00:19:52.464Z,9.28
2017-05-26T00:22:20.791Z,10.34
2017-05-26T00:24:49.130Z,10.76
2017-05-26T00:27:17.441Z,10.64
2017-05-26T00:29:45.746Z,10.78
2017-05-26T00:32:14.071Z,10.50
2017-05-26T00:34:42.389Z,10.64
2017-05-26T00:37:10.797Z,11.06
2017-05-26T00:39:39.279Z,11.22
2017-05-26T00:42:07.681Z,12.12
2017-05-26T00:44:36.047Z,10.82
2017-05-26T00:47:04.369Z,10.64
2017-05-26T00:49:32.700Z,11.52
2017-05-26T00:52:01.041Z,11.90
2017-05-26T00:54:29.349Z,11.12
2017-05-26T00:56:58.179Z,12.02
2017-05-26T00:59:26.520Z,12.88
2017-05-26T01:01:54.831Z,12.18
2017-05-26T01:04:23.137Z,11.80
2017-05-26T01:06:51.765Z,10.90
2017-05-26T01:09:20.065Z,10.36
2017-05-26T01:11:48.368Z,10.42
2017-05-26T01:14:16.697Z,11.80
2017-05-26T01:16:45.075Z,10.28
2017-05-26T01:19:13.394Z,9.40
2017-05-26T01:21:41.690Z,9.92
2017-05-26T01:24:09.989Z,11.04
2017-05-26T01:26:38.382Z,9.72
2017-05-26T01:29:06.678Z,10.12
2017-05-26T01:31:35.232Z,10.58
2017-05-26T01:34:03.541Z,11.70
2017-05-26T01:36:31.895Z,11.82
2017-05-26T01:39:00.221Z,12.62
2017-05-26T01:41:28.556Z,11.82
2017-05-26T01:43:56.863Z,11.74
2017-05-26T01:46:25.310Z,12.22
2017-05-26T01:48:53.619Z,12.22
2017-05-26T01:51:22.183Z,13.98
2017-05-26T01:53:50.507Z,11.44
2017-05-26T01:56:18.826Z,10.32
2017-05-26T01:58:47.205Z,10.60
2017-05-26T02:01:15.522Z,10.82
2017-05-26T02:03:43.870Z,10.82
2017-05-26T02:06:12.173Z,10.32
2017-05-26T02:08:40.479Z,12.60
2017-05-26T02:11:08.893Z,11.34
2017-05-26T02:13:37.266Z,10.54
2017-05-26T02:16:05.586Z,10.56
2017-05-26T02:18:34.016Z,12.14
2017-05-26T02:21:02.322Z,11.66
2017-05-26T02:23:30.655Z,10.00
2017-05-26T02:25:59.075Z,10.08
2017-05-26T02:28:27.374Z,8.88
2017-05-26T02:30:55.715Z,10.42
2017-05-26T02:33:24.094Z,9.74
2017-05-26T02:35:52.404Z,9.84
2017-05-26T02:38:20.742Z,12.18
2017-05-26T02:40:49.050Z,10.48
2017-05-26T02:43:17.414Z,11.54
2017-05-26T02:45:45.794Z,12.40
2017-05-26T02:48:14.101Z,11.26
2017-05-26T02:50:42.417Z,11.90
2017-05-26T02:53:10.749Z,11.38
2017-05-26T02:55:39.051Z,10.42
2017-05-26T02:58:07.380Z,11.66
2017-05-26T03:00:35.747Z,11.60
2017-05-26T03:03:04.051Z,13.72
2017-05-26T03:05:32.501Z,11.62
2017-05-26T03:08:00.885Z,11.52
2017-05-26T03:10:29.191Z,13.52
2017-05-26T03:12:57.519Z,12.84
2017-05-26T03:15:25.924Z,13.20
2017-05-26T03:17:54.235Z,12.06
2017-05-26T03:20:22.566Z,11.96
2017-05-26T03:22:50.863Z,13.20
2017-05-26T03:25:19.164Z,12.98
2017-05-26T03:27:47.493Z,13.58
2017-05-26T03:30:15.792Z,13.28
2017-05-26T03:32:44.097Z,13.80
2017-05-26T03:35:12.429Z,14.52
2017-05-26T03:37:40.735Z,13.78
2017-05-26T03:40:09.090Z,14.22
2017-05-26T03:42:37.430Z,14.34
2017-05-26T03:45:05.733Z,14.24
2017-05-26T03:47:34.039Z,13.54
2017-05-26T03:50:02.358Z,15.20
2017-05-26T03:52:30.673Z,17.16
2017-05-26T03:54:58.978Z,16.12
2017-05-26T03:57:27.301Z,15.28
2017-05-26T03:59:55.601Z,17.76
2017-05-26T04:02:23.997Z,16.06
2017-05-26T04:04:52.323Z,16.72
2017-05-26T04:07:20.733Z,14.56
2017-05-26T04:09:49.133Z,13.76
2017-05-26T04:12:17.451Z,12.10
2017-05-26T04:14:45.769Z,11.30
2017-05-26T04:17:14.100Z,12.34
2017-05-26T04:19:42.407Z,11.68
2017-05-26T04:22:10.710Z,12.00
2017-05-26T04:24:39.181Z,10.28
2017-05-26T04:27:07.479Z,9.94
2017-05-26T04:29:35.778Z,10.16
2017-05-26T04:32:04.090Z,9.50
2017-05-26T04:34:32.390Z,9.56
2017-05-26T04:37:00.722Z,11.38
2017-05-26T04:39:29.047Z,10.62
2017-05-26T04:41:57.353Z,10.26
2017-05-26T04:44:25.658Z,11.24
2017-05-26T04:46:54.386Z,10.18
2017-05-26T04:49:22.718Z,10.68
2017-05-26T04:51:51.025Z,9.50
2017-05-26T04:54:19.327Z,10.70
2017-05-26T04:56:47.686Z,9.34
2017-05-26T04:59:16.177Z,9.58
2017-05-26T05:01:44.480Z,9.28
2017-05-26T05:04:12.856Z,8.92
2017-05-26T05:06:41.226Z,9.36
2017-05-26T05:09:09.527Z,9.58
2017-05-26T05:11:38.013Z,8.50
2017-05-26T05:14:06.315Z,9.94
2017-05-26T05:16:34.726Z,9.06
2017-05-26T05:19:03.134Z,9.54
2017-05-26T05:21:31.439Z,10.38
2017-05-26T05:23:59.732Z,9.34
2017-05-26T05:26:28.100Z,9.70
2017-05-26T05:28:56.426Z,8.90
2017-05-26T05:31:24.726Z,8.28
2017-05-26T05:33:53.084Z,9.48
2017-05-26T05:36:21.410Z,9.64
2017-05-26T05:38:49.714Z,9.08
2017-05-26T05:41:18.105Z,9.12
2017-05-26T05:43:46.431Z,11.34
2017-05-26T05:46:14.864Z,8.02
2017-05-26T05:48:43.347Z,8.66
2017-05-26T05:51:11.652Z,8.50
2017-05-26T05:53:40.021Z,8.30
2017-05-26T05:56:08.321Z,8.16
2017-05-26T05:58:36.613Z,7.68
2017-05-26T06:01:04.942Z,7.56
2017-05-26T06:03:33.433Z,6.88
2017-05-26T06:06:01.797Z,5.86
2017-05-26T06:08:30.188Z,7.38
2017-05-26T06:10:58.558Z,6.82
2017-05-26T06:13:26.857Z,6.78
2017-05-26T06:15:55.217Z,6.20
2017-05-26T06:18:23.519Z,6.06
2017-05-26T06:20:51.870Z,6.46
2017-05-26T06:23:20.250Z,6.06
2017-05-26T06:25:48.543Z,5.64
2017-05-26T06:28:16.997Z,5.10
2017-05-26T06:30:45.479Z,4.94
2017-05-26T06:33:13.878Z,4.08
2017-05-26T06:35:42.183Z,4.68
2017-05-26T06:38:10.494Z,6.62
2017-05-26T06:40:38.810Z,4.20
2017-05-26T06:43:07.174Z,3.88
2017-05-26T06:45:35.502Z,5.06
2017-05-26T06:48:03.805Z,4.30
2017-05-26T06:50:32.108Z,3.98
2017-05-26T06:53:00.478Z,5.70
2017-05-26T06:55:28.963Z,3.98
2017-05-26T06:57:57.282Z,4.12
2017-05-26T07:00:25.625Z,3.40
2017-05-26T07:02:53.945Z,4.40
2017-05-26T07:05:22.245Z,7.04
2017-05-26T07:07:50.561Z,4.24
2017-05-26T07:10:18.885Z,4.80
2017-05-26T07:12:47.181Z,4.76
2017-05-26T07:15:15.516Z,4.08
2017-05-26T07:17:43.812Z,5.04
2017-05-26T07:20:12.143Z,3.22
2017-05-26T07:22:40.535Z,3.28
2017-05-26T07:25:08.838Z,3.88
2017-05-26T07:27:37.135Z,3.86
2017-05-26T07:30:05.563Z,3.70
2017-05-26T07:32:33.863Z,4.18
2017-05-26T07:35:02.215Z,4.90
2017-05-26T07:37:30.530Z,4.12
2017-05-26T07:39:58.870Z,3.64
2017-05-26T07:42:27.186Z,3.94
2017-05-26T07:44:55.526Z,3.30
2017-05-26T07:47:23.846Z,2.92
2017-05-26T07:49:52.159Z,3.50
2017-05-26T07:52:20.453Z,2.78
2017-05-26T07:54:48.766Z,4.08
2017-05-26T07:57:17.106Z,3.34
2017-05-26T07:59:45.498Z,3.10
2017-05-26T08:02:13.883Z,2.94
2017-05-26T08:04:42.189Z,3.34
2017-05-26T08:07:10.505Z,3.60
2017-05-26T08:09:38.841Z,3.14
2017-05-26T08:12:07.277Z,3.00
2017-05-26T08:14:35.571Z,3.36
2017-05-26T08:17:03.895Z,4.72
2017-05-26T08:19:32.193Z,4.32
2017-05-26T08:22:00.499Z,2.74
2017-05-26T08:24:28.863Z,4.30
2017-05-26T08:26:57.251Z,2.66
2017-05-26T08:29:25.555Z,2.88
2017-05-26T08:31:53.898Z,3.76
2017-05-26T08:34:22.279Z,4.18
2017-05-26T08:36:50.574Z,2.94
2017-05-26T08:39:18.875Z,3.62
2017-05-26T08:41:47.206Z,4.78
2017-05-26T08:44:15.599Z,3.38
2017-05-26T08:46:43.926Z,4.60
2017-05-26T08:49:12.225Z,4.16
2017-05-26T08:51:40.522Z,9.28
2017-05-26T08:54:08.857Z,4.12
2017-05-26T08:56:37.182Z,4.00
2017-05-26T08:59:05.485Z,3.50
2017-05-26T09:01:33.805Z,1.96
2017-05-26T09:04:02.213Z,1.54
2017-05-26T09:06:30.601Z,3.34
2017-05-26T09:08:58.921Z,6.14
2017-05-26T09:11:27.217Z,1.92
2017-05-26T09:13:56.085Z,2.42
2017-05-26T09:16:24.443Z,2.46
2017-05-26T09:18:52.740Z,2.04
2017-05-26T09:21:21.071Z,5.56
2017-05-26T09:23:49.403Z,2.64
2017-05-26T09:26:17.698Z,3.42
2017-05-26T09:28:46.096Z,1.90
2017-05-26T09:31:14.478Z,1.76
2017-05-26T09:33:42.779Z,2.14
2017-05-26T09:36:11.230Z,1.80
2017-05-26T09:38:39.713Z,3.28
2017-05-26T09:41:08.107Z,2.96
2017-05-26T09:43:36.402Z,3.04
2017-05-26T09:46:04.763Z,2.10
2017-05-26T09:48:33.491Z,1.80
2017-05-26T09:51:01.793Z,2.90
2017-05-26T09:53:30.107Z,1.26
2017-05-26T09:55:58.477Z,2.58
2017-05-26T09:58:26.871Z,2.38
2017-05-26T10:00:55.170Z,6.22
2017-05-26T10:03:23.490Z,1.90
2017-05-26T10:05:51.786Z,2.26
2017-05-26T10:08:20.081Z,2.46
2017-05-26T10:10:48.831Z,2.96
2017-05-26T10:13:17.135Z,2.10
2017-05-26T10:15:45.432Z,2.38
2017-05-26T10:18:13.773Z,2.24
2017-05-26T10:20:42.162Z,1.78
2017-05-26T10:23:10.463Z,4.28
2017-05-26T10:25:38.817Z,1.82
2017-05-26T10:28:07.114Z,5.28
2017-05-26T10:30:35.483Z,2.70
2017-05-26T10:33:03.850Z,3.14
2017-05-26T10:35:32.248Z,2.62
2017-05-26T10:38:00.541Z,2.36
2017-05-26T10:40:28.891Z,3.42
2017-05-26T10:42:57.190Z,6.20
2017-05-26T10:45:25.554Z,7.56
2017-05-26T10:47:53.879Z,3.38
2017-05-26T10:50:22.189Z,4.66
2017-05-26T10:52:50.671Z,1.82
2017-05-26T10:55:19.002Z,3.70
2017-05-26T10:57:47.334Z,2.26
2017-05-26T11:00:15.837Z,2.02
2017-05-26T11:02:44.299Z,3.12
2017-05-26T11:05:12.599Z,7.94
2017-05-26T11:07:40.894Z,5.00
2017-05-26T11:10:09.207Z,2.44
2017-05-26T11:12:37.602Z,1.72
2017-05-26T11:15:05.910Z,2.44
2017-05-26T11:17:34.202Z,2.46
2017-05-26T11:20:02.736Z,2.52
2017-05-26T11:22:31.035Z,2.94
2017-05-26T11:24:59.332Z,1.68
2017-05-26T11:27:27.871Z,2.10
2017-05-26T11:29:56.186Z,1.60
2017-05-26T11:32:24.493Z,2.08
2017-05-26T11:34:52.866Z,2.06
2017-05-26T11:37:21.188Z,2.12
2017-05-26T11:39:49.561Z,3.04
2017-05-26T11:42:17.959Z,2.08
2017-05-26T11:44:46.341Z,2.08
2017-05-26T11:47:14.674Z,2.04
2017-05-26T11:49:42.978Z,1.90
2017-05-26T11:52:11.278Z,1.62
2017-05-26T11:54:39.594Z,1.64
2017-05-26T11:57:07.940Z,2.12
2017-05-26T11:59:36.386Z,2.00
2017-05-26T12:02:04.868Z,2.72
2017-05-26T12:04:33.193Z,1.64
2017-05-26T12:07:01.497Z,2.32
2017-05-26T12:09:29.902Z,3.02
2017-05-26T12:11:58.650Z,1.60
2017-05-26T12:14:26.950Z,2.10
2017-05-26T12:16:55.345Z,2.02
2017-05-26T12:19:23.739Z,1.33
2017-05-26T12:21:52.029Z,1.78
2017-05-26T12:24:20.480Z,21.73
2017-05-26T12:26:48.811Z,2.70
2017-05-26T12:29:17.146Z,3.03
2017-05-26T12:31:45.444Z,1.98
2017-05-26T12:34:13.813Z,2.38
2017-05-26T12:36:41.734Z,2.22
2017-05-26T12:39:10.061Z,6.28
2017-05-26T12:41:37.719Z,7.13
2017-05-26T12:44:06.017Z,1.78
2017-05-26T12:46:34.355Z,3.18
2017-05-26T12:49:02.661Z,3.25
2017-05-26T12:51:31.016Z,2.03
2017-05-26T12:53:59.328Z,2.25
2017-05-26T12:56:27.629Z,2.73
2017-05-26T12:58:56.047Z,1.93
2017-05-26T13:01:24.426Z,1.32
2017-05-26T13:03:52.815Z,1.70
2017-05-26T13:06:21.166Z,2.65
2017-05-26T13:08:49.552Z,1.92
2017-05-26T13:11:18.038Z,1.58
2017-05-26T13:13:46.518Z,1.90
2017-05-26T13:16:14.842Z,2.35
2017-05-26T13:18:43.190Z,1.55
2017-05-26T13:21:11.568Z,2.03
2017-05-26T13:23:39.866Z,1.87
2017-05-26T13:26:08.213Z,1.58
2017-05-26T13:28:36.546Z,3.82
2017-05-26T13:31:04.851Z,1.58
2017-05-26T13:33:33.245Z,1.68
2017-05-26T13:36:01.566Z,1.63
2017-05-26T13:38:29.865Z,2.35
2017-05-26T13:40:58.167Z,1.82
2017-05-26T13:43:26.585Z,2.50
2017-05-26T13:45:55.027Z,2.33
2017-05-26T13:48:23.508Z,3.92
2017-05-26T13:50:51.902Z,2.62
2017-05-26T13:53:20.267Z,1.95
2017-05-26T13:55:48.573Z,1.70
2017-05-26T13:58:16.913Z,1.40
2017-05-26T14:00:45.218Z,1.73
2017-05-26T14:03:13.556Z,1.63
2017-05-26T14:05:41.954Z,1.65
2017-05-26T14:08:10.445Z,1.62
2017-05-26T14:10:38.774Z,1.53
2017-05-26T14:13:07.101Z,1.47
2017-05-26T14:15:35.572Z,1.78
2017-05-26T14:18:03.905Z,1.87
2017-05-26T14:20:32.205Z,1.68
2017-05-26T14:23:00.517Z,1.82
2017-05-26T14:25:28.855Z,1.57
2017-05-26T14:27:57.165Z,1.65
2017-05-26T14:30:25.981Z,1.68
2017-05-26T14:32:54.883Z,1.42
2017-05-26T14:35:23.177Z,1.72
2017-05-26T14:37:51.595Z,1.97
2017-05-26T14:40:20.077Z,1.40
2017-05-26T14:42:48.471Z,1.60
2017-05-26T14:45:16.779Z,2.37
2017-05-26T14:47:45.110Z,2.67
2017-05-26T14:50:13.411Z,1.82
2017-05-26T14:52:41.719Z,5.00
2017-05-26T14:55:10.034Z,1.70
2017-05-26T14:57:38.522Z,1.63
2017-05-26T15:00:07.004Z,1.40
2017-05-26T15:02:35.486Z,1.22
2017-05-26T15:05:03.870Z,1.35
2017-05-26T15:07:32.174Z,4.68
2017-05-26T15:10:00.478Z,2.02
2017-05-26T15:12:28.837Z,1.78
2017-05-26T15:14:57.133Z,1.47
2017-05-26T15:17:25.437Z,1.47
2017-05-26T15:19:53.759Z,1.27
2017-05-26T15:22:22.069Z,1.50
2017-05-26T15:24:50.371Z,20.47
2017-05-26T15:27:18.689Z,6.75
2017-05-26T15:29:46.999Z,1.60
2017-05-26T15:32:15.333Z,1.33
2017-05-26T15:34:43.635Z,1.70
2017-05-26T15:37:11.934Z,1.62
2017-05-26T15:39:40.355Z,1.43
2017-05-26T15:42:08.710Z,6.93
2017-05-26T15:44:37.010Z,8.75
2017-05-26T15:47:05.335Z,2.07
2017-05-26T15:49:33.656Z,1.97
2017-05-26T15:52:01.985Z,1.80
2017-05-26T15:54:30.311Z,3.45
2017-05-26T15:56:58.610Z,1.68
2017-05-26T15:59:27.275Z,1.42
2017-05-26T16:01:55.766Z,1.45
2017-05-26T16:04:24.231Z,1.52
2017-05-26T16:06:52.618Z,1.65
2017-05-26T16:09:21.326Z,1.83
2017-05-26T16:11:49.778Z,1.78
2017-05-26T16:14:18.174Z,1.73
2017-05-26T16:16:46.737Z,1.52
2017-05-26T16:19:15.063Z,1.96
2017-05-26T16:21:42.605Z,2.00
2017-05-26T16:24:10.906Z,1.52
2017-05-26T16:26:39.331Z,1.90
2017-05-26T16:29:07.633Z,2.08
2017-05-26T16:31:35.998Z,8.42
2017-05-26T16:34:04.301Z,1.72
2017-05-26T16:36:32.599Z,6.94
2017-05-26T16:39:00.912Z,2.82
2017-05-26T16:41:29.323Z,4.06
2017-05-26T16:43:57.647Z,2.00
2017-05-26T16:46:25.938Z,1.70
2017-05-26T16:48:54.240Z,5.78
2017-05-26T16:51:22.573Z,6.62
2017-05-26T16:53:50.898Z,21.80
2017-05-26T16:56:19.198Z,3.66
2017-05-26T16:58:47.520Z,2.20
2017-05-26T17:01:15.851Z,14.78
2017-05-26T17:03:44.157Z,2.76
2017-05-26T17:06:12.485Z,2.12
2017-05-26T17:08:40.795Z,1.94
2017-05-26T17:11:09.098Z,1.96
2017-05-26T17:13:37.522Z,2.02
2017-05-26T17:16:05.850Z,14.66
2017-05-26T17:18:34.166Z,4.92
